ADDS TAF Data INFO
IDs: Format: Raw Decoded Include METARs

Data at: 1638 UTC 20 Jul 2017

TAF for:KAUS (Austin/Bergstrom Int, TX, US) issued at 1131 UTC 20 Jul 2017
Text:KAUS 201131Z 2012/2118 17007KT P6SM FEW010 FEW040
Forecast period:1200 UTC 20 July 2017 to 1800 UTC 21 July 2017
Forecast type:FROM: standard forecast or significant change
Winds:from the S (170 degrees) at 8 MPH (7 knots; 3.6 m/s)
Visibility:6 or more sm (10+ km)
Ceiling:at least 12,000 feet AGL
Clouds: few clouds at 1000 feet AGL, few clouds at 4000 feet AGL